createdAt,value
2023-01-06T00:00:36.043Z,101632.13
2023-01-06T00:03:03.152Z,101631.16
2023-01-06T00:05:29.728Z,101625.13
2023-01-06T00:07:56.475Z,101630.38
2023-01-06T00:10:23.529Z,101623.44
2023-01-06T00:12:50.717Z,101628.88
2023-01-06T00:15:18.559Z,101628.78
2023-01-06T00:17:45.669Z,101628.75
2023-01-06T00:20:13.952Z,101622.44
2023-01-06T00:22:41.249Z,101620.75
2023-01-06T00:25:12.688Z,101623.38
2023-01-06T00:27:39.966Z,101615.19
2023-01-06T00:30:07.801Z,101616.47
2023-01-06T00:32:34.398Z,101606.59
2023-01-06T00:35:01.135Z,101604.50
2023-01-06T00:37:27.575Z,101597.22
2023-01-06T00:39:53.926Z,101600.88
2023-01-06T00:42:22.360Z,101601.81
2023-01-06T00:44:48.893Z,101608.03
2023-01-06T00:47:15.385Z,101613.28
2023-01-06T00:49:42.183Z,101609.69
2023-01-06T00:52:09.150Z,101606.03
2023-01-06T00:54:36.678Z,101609.59
2023-01-06T00:57:05.625Z,101619.31
2023-01-06T00:59:32.104Z,101612.88
2023-01-06T01:01:59.286Z,101619.09
2023-01-06T01:04:26.655Z,101613.09
2023-01-06T01:06:54.109Z,101611.22
2023-01-06T01:09:29.474Z,101612.97
2023-01-06T01:12:14.658Z,101612.16
2023-01-06T01:14:50.065Z,101599.84
2023-01-06T01:17:28.276Z,101606.84
2023-01-06T01:19:56.103Z,101606.09
2023-01-06T01:22:24.329Z,101605.94
2023-01-06T01:24:51.130Z,101600.63
2023-01-06T01:27:18.229Z,101600.84
2023-01-06T01:29:44.787Z,101594.25
2023-01-06T01:32:11.278Z,101592.59
2023-01-06T01:34:38.228Z,101584.88
2023-01-06T01:37:04.900Z,101586.56
2023-01-06T01:39:31.640Z,101592.75
2023-01-06T01:41:59.254Z,101589.16
2023-01-06T01:45:02.970Z,101595.59
2023-01-06T01:47:44.907Z,101588.28
2023-01-06T01:50:34.357Z,101589.25
2023-01-06T01:53:15.157Z,101597.28
2023-01-06T01:55:41.797Z,101596.56
2023-01-06T01:58:21.810Z,101600.13
2023-01-06T02:00:48.265Z,101586.41
2023-01-06T02:03:15.689Z,101580.19
2023-01-06T02:05:46.612Z,101582.81
2023-01-06T02:08:48.302Z,101582.63
2023-01-06T02:11:14.842Z,101573.00
2023-01-06T02:13:44.516Z,101577.16
2023-01-06T02:16:16.817Z,101577.25
2023-01-06T02:18:59.885Z,101574.25
2023-01-06T02:21:26.288Z,101566.44
2023-01-06T02:24:31.437Z,101561.91
2023-01-06T02:27:06.949Z,101562.94
2023-01-06T02:29:39.319Z,101571.81
2023-01-06T02:32:30.693Z,101553.88
2023-01-06T02:35:15.890Z,101561.09
2023-01-06T02:37:48.255Z,101562.06
2023-01-06T02:40:30.278Z,101548.75
2023-01-06T02:43:35.038Z,101545.03
2023-01-06T02:46:07.226Z,101535.69
2023-01-06T02:48:39.548Z,101551.63
2023-01-06T02:51:15.997Z,101537.16
2023-01-06T02:54:05.962Z,101540.88
2023-01-06T02:56:38.300Z,101540.59
2023-01-06T02:59:14.902Z,101532.69
2023-01-06T03:01:44.463Z,101542.41
2023-01-06T03:04:17.196Z,101539.16
2023-01-06T03:06:47.051Z,101536.19
2023-01-06T03:09:27.189Z,101528.06
2023-01-06T03:11:53.721Z,101527.31
2023-01-06T03:14:35.248Z,101525.47
2023-01-06T03:17:02.578Z,101528.97
2023-01-06T03:19:29.119Z,101522.19
2023-01-06T03:21:56.486Z,101514.94
2023-01-06T03:24:23.501Z,101514.75
2023-01-06T03:26:52.774Z,101521.88
2023-01-06T03:29:20.282Z,101505.75
2023-01-06T03:31:58.465Z,101504.53
2023-01-06T03:34:30.586Z,101504.28
2023-01-06T03:37:15.856Z,101504.06
2023-01-06T03:39:52.975Z,101496.84
2023-01-06T03:42:41.239Z,101490.53
2023-01-06T03:45:10.255Z,101484.31
2023-01-06T03:47:57.976Z,101498.63
2023-01-06T03:50:32.860Z,101491.41
2023-01-06T03:53:14.246Z,101492.97
2023-01-06T03:55:45.983Z,101488.44
2023-01-06T03:58:14.098Z,101489.16
2023-01-06T04:00:41.672Z,101483.56
2023-01-06T04:03:15.923Z,101475.75
2023-01-06T04:05:42.401Z,101477.28
2023-01-06T04:08:08.831Z,101472.22
2023-01-06T04:10:35.359Z,101475.22
2023-01-06T04:13:01.808Z,101474.13
2023-01-06T04:15:32.521Z,101474.13
2023-01-06T04:17:59.499Z,101463.53
2023-01-06T04:20:28.644Z,101456.25
2023-01-06T04:22:57.007Z,101457.25
2023-01-06T04:25:24.505Z,101460.56
2023-01-06T04:27:51.545Z,101452.53
2023-01-06T04:30:18.323Z,101453.25
2023-01-06T04:32:44.899Z,101451.78
2023-01-06T04:35:11.712Z,101454.03
2023-01-06T04:37:38.448Z,101446.72
2023-01-06T04:40:07.534Z,101437.94
2023-01-06T04:42:54.438Z,101433.47
2023-01-06T04:45:21.362Z,101423.28
2023-01-06T04:47:47.840Z,101422.47
2023-01-06T04:50:14.667Z,101423.09
2023-01-06T04:52:41.097Z,101416.34
2023-01-06T04:55:08.756Z,101409.03
2023-01-06T04:57:35.155Z,101405.47
2023-01-06T05:00:01.618Z,101381.38
2023-01-06T05:02:28.065Z,101394.22
2023-01-06T05:04:54.527Z,101397.97
2023-01-06T05:07:21.045Z,101395.34
2023-01-06T05:09:47.528Z,101389.34
2023-01-06T05:12:13.920Z,101380.13
2023-01-06T05:14:40.355Z,101371.88
2023-01-06T05:17:06.750Z,101370.69
2023-01-06T05:19:35.274Z,101367.38
2023-01-06T05:22:01.729Z,101376.25
2023-01-06T05:24:28.165Z,101376.03
2023-01-06T05:26:55.029Z,101361.09
2023-01-06T05:29:21.546Z,101375.34
2023-01-06T05:31:48.140Z,101371.81
2023-01-06T05:34:14.640Z,101360.19
2023-01-06T05:36:41.018Z,101354.41
2023-01-06T05:39:07.389Z,101347.28
2023-01-06T05:41:33.788Z,101348.00
2023-01-06T05:44:00.190Z,101358.00
2023-01-06T05:46:26.570Z,101361.19
2023-01-06T05:48:52.986Z,101362.47
2023-01-06T05:51:19.447Z,101363.13
2023-01-06T05:53:47.973Z,101346.94
2023-01-06T05:56:17.774Z,101347.94
2023-01-06T05:58:45.924Z,101341.72
2023-01-06T06:01:24.874Z,101341.94
2023-01-06T06:03:53.546Z,101348.59
2023-01-06T06:06:21.962Z,101349.28
2023-01-06T06:08:48.690Z,101343.47
2023-01-06T06:11:17.408Z,101348.88
2023-01-06T06:13:48.336Z,101351.31
2023-01-06T06:16:16.454Z,101349.50
2023-01-06T06:18:43.958Z,101344.22
2023-01-06T06:21:12.560Z,101337.13
2023-01-06T06:23:39.828Z,101327.97
2023-01-06T06:26:06.971Z,101310.59
2023-01-06T06:28:34.512Z,101305.84
2023-01-06T06:31:09.136Z,101312.69
2023-01-06T06:33:35.773Z,101314.78
2023-01-06T06:36:03.817Z,101308.84
2023-01-06T06:38:30.384Z,101304.66
2023-01-06T06:40:56.962Z,101305.38
2023-01-06T06:43:23.775Z,101297.47
2023-01-06T06:45:50.287Z,101300.25
2023-01-06T06:48:17.231Z,101297.97
2023-01-06T06:50:43.717Z,101303.34
2023-01-06T06:53:13.111Z,101295.47
2023-01-06T06:55:39.624Z,101291.50
2023-01-06T06:58:06.004Z,101297.81
2023-01-06T07:00:32.656Z,101291.22
2023-01-06T07:02:59.178Z,101288.22
2023-01-06T07:05:25.752Z,101289.97
2023-01-06T07:07:52.420Z,101275.66
2023-01-06T07:10:19.142Z,101272.16
2023-01-06T07:12:45.565Z,101283.63
2023-01-06T07:15:12.184Z,101276.31
2023-01-06T07:17:39.523Z,101281.81
2023-01-06T07:20:06.371Z,101262.22
2023-01-06T07:22:32.819Z,101267.69
2023-01-06T07:24:59.261Z,101270.19
2023-01-06T07:27:25.711Z,101270.34
2023-01-06T07:29:52.159Z,101276.09
2023-01-06T07:32:18.590Z,101275.44
2023-01-06T07:34:45.012Z,101276.41
2023-01-06T07:37:11.431Z,101272.91
2023-01-06T07:39:37.912Z,101276.53
2023-01-06T07:42:04.379Z,101264.63
2023-01-06T07:44:30.814Z,101276.72
2023-01-06T07:46:57.284Z,101281.19
2023-01-06T07:49:23.747Z,101278.66
2023-01-06T07:51:50.165Z,101282.13
2023-01-06T07:54:16.690Z,101293.34
2023-01-06T07:56:44.146Z,101290.75
2023-01-06T07:59:10.888Z,101291.47
2023-01-06T08:01:37.493Z,101275.53
2023-01-06T08:04:04.186Z,101273.94
2023-01-06T08:06:30.679Z,101274.66
2023-01-06T08:08:57.139Z,101270.97
2023-01-06T08:11:23.657Z,101252.94
2023-01-06T08:13:50.135Z,101255.50
2023-01-06T08:16:16.696Z,101248.50
2023-01-06T08:18:43.312Z,101253.56
2023-01-06T08:21:11.289Z,101245.59
2023-01-06T08:23:38.438Z,101251.75
2023-01-06T08:26:16.436Z,101254.38
2023-01-06T08:28:44.485Z,101249.66
2023-01-06T08:31:12.771Z,101244.28
2023-01-06T08:33:40.020Z,101235.31
2023-01-06T08:36:08.503Z,101236.31
2023-01-06T08:38:36.700Z,101228.81
2023-01-06T08:41:03.712Z,101226.31
2023-01-06T08:43:31.658Z,101240.47
2023-01-06T08:46:03.650Z,101233.63
2023-01-06T08:48:30.587Z,101229.03
2023-01-06T08:51:11.928Z,101218.16
2023-01-06T08:53:39.061Z,101210.88
2023-01-06T08:56:14.459Z,101211.63
2023-01-06T08:58:41.395Z,101207.81
2023-01-06T09:01:15.443Z,101204.19
2023-01-06T09:03:41.846Z,101197.16
2023-01-06T09:06:08.258Z,101199.03
2023-01-06T09:08:34.694Z,101202.59
2023-01-06T09:11:08.988Z,101201.25
2023-01-06T09:13:36.053Z,101207.38
2023-01-06T09:16:09.506Z,101205.56
2023-01-06T09:18:36.557Z,101209.84
2023-01-06T09:21:04.767Z,101207.16
2023-01-06T09:23:32.162Z,101212.00
2023-01-06T09:25:58.862Z,101211.19
2023-01-06T09:28:26.044Z,101200.13
2023-01-06T09:30:52.576Z,101197.78
2023-01-06T09:33:19.015Z,101197.03
2023-01-06T09:35:46.457Z,101198.56
2023-01-06T09:38:13.769Z,101194.41
2023-01-06T09:41:05.187Z,101186.31
2023-01-06T09:43:56.235Z,101179.13
2023-01-06T09:46:28.159Z,101175.44
2023-01-06T09:49:26.245Z,101171.63
2023-01-06T09:51:57.049Z,101151.50
2023-01-06T09:54:33.353Z,101165.84
2023-01-06T09:57:06.837Z,101147.00
2023-01-06T09:59:44.713Z,101149.56
2023-01-06T10:02:22.921Z,101154.44
2023-01-06T10:04:49.421Z,101148.19
2023-01-06T10:07:57.727Z,101143.38
2023-01-06T10:10:45.713Z,101139.75
2023-01-06T10:14:06.479Z,101131.34
2023-01-06T10:17:04.973Z,101118.53
2023-01-06T10:19:55.495Z,101118.22
2023-01-06T10:22:46.821Z,101105.47
2023-01-06T10:25:33.068Z,101111.34
2023-01-06T10:28:29.988Z,101121.66
2023-01-06T10:31:01.532Z,101117.88
2023-01-06T10:33:32.115Z,101104.22
2023-01-06T10:35:59.777Z,101094.13
2023-01-06T10:38:35.409Z,101086.00
2023-01-06T10:41:19.518Z,101084.25
2023-01-06T10:43:46.195Z,101086.66
2023-01-06T10:46:12.859Z,101082.56
2023-01-06T10:48:39.878Z,101089.50
2023-01-06T10:51:33.785Z,101088.22
2023-01-06T10:54:04.539Z,101077.81
2023-01-06T10:56:32.719Z,101070.72
2023-01-06T10:59:06.368Z,101067.56
2023-01-06T11:01:34.773Z,101076.72
2023-01-06T11:04:10.287Z,101070.13
2023-01-06T11:06:40.419Z,101057.16
2023-01-06T11:09:21.573Z,101062.22
2023-01-06T11:11:49.733Z,101053.38
2023-01-06T11:14:19.220Z,101053.53
2023-01-06T11:16:55.086Z,101057.25
2023-01-06T11:19:31.652Z,101054.88
2023-01-06T11:21:58.298Z,101050.69
2023-01-06T11:24:26.398Z,101043.72
2023-01-06T11:27:02.120Z,101045.47
2023-01-06T11:29:30.465Z,101030.22
2023-01-06T11:32:02.440Z,101032.03
2023-01-06T11:34:29.571Z,101033.38
2023-01-06T11:36:57.348Z,101028.63
2023-01-06T11:39:31.480Z,101033.03
2023-01-06T11:42:05.232Z,101020.47
2023-01-06T11:44:35.466Z,101024.19
2023-01-06T11:47:23.059Z,101016.72
2023-01-06T11:49:57.340Z,101019.16
2023-01-06T11:52:32.898Z,101017.16
2023-01-06T11:55:20.360Z,101019.06
2023-01-06T11:58:11.859Z,101025.84
2023-01-06T12:01:06.797Z,101020.41
2023-01-06T12:03:42.375Z,101011.47
2023-01-06T12:06:20.938Z,101004.22
2023-01-06T12:09:17.679Z,101000.59
2023-01-06T12:11:57.819Z,100996.94
2023-01-06T12:14:30.469Z,100992.34
2023-01-06T12:17:02.921Z,100994.00
2023-01-06T12:19:39.407Z,100997.13
2023-01-06T12:22:20.103Z,101002.38
2023-01-06T12:24:50.610Z,100989.44
2023-01-06T12:27:29.985Z,100989.66
2023-01-06T12:30:00.355Z,100979.94
2023-01-06T12:32:35.047Z,100979.31
2023-01-06T12:35:04.384Z,100978.72
2023-01-06T12:37:38.085Z,100975.25
2023-01-06T12:40:09.949Z,100973.78
2023-01-06T12:42:51.702Z,100975.69
2023-01-06T12:45:28.779Z,100969.25
2023-01-06T12:47:58.361Z,100967.53
2023-01-06T12:50:34.186Z,100959.53
2023-01-06T12:53:20.800Z,100965.69
2023-01-06T12:56:06.573Z,100970.31
2023-01-06T12:58:35.832Z,100967.97
2023-01-06T13:01:14.789Z,100963.19
2023-01-06T13:04:14.094Z,100964.66
2023-01-06T13:06:57.604Z,100959.19
2023-01-06T13:09:37.527Z,100966.31
2023-01-06T13:12:43.814Z,100970.91
2023-01-06T13:15:29.029Z,100973.94
2023-01-06T13:18:05.991Z,100975.75
2023-01-06T13:20:41.533Z,100979.50
2023-01-06T13:23:35.507Z,100966.03
2023-01-06T13:26:20.349Z,100970.97
2023-01-06T13:28:56.046Z,100978.00
2023-01-06T13:31:59.718Z,100973.81
2023-01-06T13:34:44.641Z,100977.22
2023-01-06T13:37:42.172Z,100971.13
2023-01-06T13:40:29.614Z,100974.41
2023-01-06T13:42:59.726Z,100984.31
2023-01-06T13:45:48.537Z,100981.03
2023-01-06T13:48:20.155Z,100976.50
2023-01-06T13:50:47.135Z,100971.91
2023-01-06T13:53:19.318Z,100985.78
2023-01-06T13:55:46.219Z,100983.44
2023-01-06T13:58:25.588Z,100982.13
2023-01-06T14:01:30.085Z,100998.38
2023-01-06T14:04:42.610Z,100999.41
2023-01-06T14:07:09.653Z,101010.69
2023-01-06T14:09:40.278Z,101009.47
2023-01-06T14:12:15.891Z,101009.56
2023-01-06T14:14:42.423Z,101009.44
2023-01-06T14:17:36.635Z,101018.59
2023-01-06T14:20:03.936Z,101015.06
2023-01-06T14:22:40.610Z,101017.06
2023-01-06T14:25:08.856Z,101017.25
2023-01-06T14:27:47.372Z,101027.75
2023-01-06T14:30:30.689Z,101031.84
2023-01-06T14:33:23.643Z,101026.88
2023-01-06T14:35:59.019Z,101029.56
2023-01-06T14:38:57.671Z,101031.09
2023-01-06T14:41:26.843Z,101041.78
2023-01-06T14:43:56.797Z,101041.56
2023-01-06T14:46:31.844Z,101040.94
2023-01-06T14:49:04.431Z,101044.50
2023-01-06T14:51:33.125Z,101040.94
2023-01-06T14:54:04.425Z,101042.00
2023-01-06T14:56:33.316Z,101034.34
2023-01-06T14:59:11.093Z,101043.56
2023-01-06T15:01:39.740Z,101040.06
2023-01-06T15:04:21.962Z,101043.53
2023-01-06T15:07:17.019Z,101043.47
2023-01-06T15:09:44.697Z,101044.19
2023-01-06T15:12:24.483Z,101046.34
2023-01-06T15:14:50.934Z,101051.75
2023-01-06T15:17:17.596Z,101057.25
2023-01-06T15:19:46.721Z,101050.53
2023-01-06T15:22:20.317Z,101053.31
2023-01-06T15:24:48.205Z,101063.03
2023-01-06T15:27:17.065Z,101060.41
2023-01-06T15:29:55.108Z,101074.81
2023-01-06T15:32:24.823Z,101077.25
2023-01-06T15:34:52.818Z,101083.91
2023-01-06T15:37:23.429Z,101086.94
2023-01-06T15:39:51.418Z,101094.50
2023-01-06T15:42:25.430Z,101094.56
2023-01-06T15:45:02.645Z,101105.63
2023-01-06T15:47:36.098Z,101121.06
2023-01-06T15:50:06.775Z,101118.31
2023-01-06T15:52:38.673Z,101123.84
2023-01-06T15:55:08.219Z,101133.56
2023-01-06T15:57:38.978Z,101127.31
2023-01-06T16:00:09.344Z,101122.81
2023-01-06T16:02:36.338Z,101136.50
2023-01-06T16:05:03.150Z,101130.19
2023-01-06T16:07:47.957Z,101127.66
2023-01-06T16:10:36.363Z,101127.66
2023-01-06T16:13:22.266Z,101135.72
2023-01-06T16:16:09.709Z,101146.56
2023-01-06T16:18:38.126Z,101143.47
2023-01-06T16:21:13.714Z,101151.53
2023-01-06T16:23:40.442Z,101145.53
2023-01-06T16:26:27.701Z,101153.50
2023-01-06T16:28:56.754Z,101156.13
2023-01-06T16:31:30.965Z,101162.44
2023-01-06T16:34:24.286Z,101161.81
2023-01-06T16:36:54.409Z,101168.88
2023-01-06T16:39:20.834Z,101179.69
2023-01-06T16:41:59.506Z,101167.03
2023-01-06T16:44:27.087Z,101173.38
2023-01-06T16:46:53.542Z,101172.34
2023-01-06T16:49:20.877Z,101173.38
2023-01-06T16:51:47.581Z,101174.56
2023-01-06T16:54:18.622Z,101174.72
2023-01-06T16:56:49.942Z,101175.44
2023-01-06T16:59:18.213Z,101180.91
2023-01-06T17:01:46.799Z,101185.66
2023-01-06T17:04:14.807Z,101196.31
2023-01-06T17:06:43.829Z,101191.66
2023-01-06T17:09:23.202Z,101192.69
2023-01-06T17:11:51.319Z,101187.31
2023-01-06T17:14:20.207Z,101190.78
2023-01-06T17:16:47.475Z,101195.38
2023-01-06T17:19:26.608Z,101203.75
2023-01-06T17:22:28.335Z,101209.78
2023-01-06T17:24:59.359Z,101226.69
2023-01-06T17:27:29.965Z,101220.44
2023-01-06T17:30:00.963Z,101220.38
2023-01-06T17:32:41.064Z,101223.94
2023-01-06T17:35:21.575Z,101225.50
2023-01-06T17:37:47.993Z,101226.38
2023-01-06T17:40:16.955Z,101236.91
2023-01-06T17:42:44.293Z,101235.06
2023-01-06T17:45:29.172Z,101238.88
2023-01-06T17:47:56.470Z,101244.41
2023-01-06T17:50:30.869Z,101245.69
2023-01-06T17:53:35.885Z,101248.53
2023-01-06T17:56:08.633Z,101259.75
2023-01-06T17:58:38.488Z,101262.13
2023-01-06T18:01:10.070Z,101262.28
2023-01-06T18:03:40.906Z,101256.75
2023-01-06T18:06:22.007Z,101261.97
2023-01-06T18:08:53.423Z,101257.22
2023-01-06T18:11:25.660Z,101262.91
2023-01-06T18:13:52.640Z,101266.41
2023-01-06T18:16:32.100Z,101269.81
2023-01-06T18:19:22.083Z,101271.78
2023-01-06T18:21:49.767Z,101274.56
2023-01-06T18:24:35.995Z,101276.78
2023-01-06T18:27:22.359Z,101268.84
2023-01-06T18:29:49.845Z,101274.22
2023-01-06T18:32:31.448Z,101273.59
2023-01-06T18:35:10.575Z,101272.88
2023-01-06T18:37:37.092Z,101275.75
2023-01-06T18:40:11.663Z,101269.25
2023-01-06T18:42:44.376Z,101272.09
2023-01-06T18:45:19.160Z,101271.69
2023-01-06T18:47:51.703Z,101276.53
2023-01-06T18:50:28.641Z,101270.19
2023-01-06T18:53:00.719Z,101268.47
2023-01-06T18:55:37.676Z,101274.03
2023-01-06T18:58:22.932Z,101273.38
2023-01-06T19:00:56.858Z,101278.75
2023-01-06T19:03:53.504Z,101286.81
2023-01-06T19:06:19.966Z,101281.63
2023-01-06T19:08:49.542Z,101280.81
2023-01-06T19:11:24.338Z,101282.81
2023-01-06T19:14:06.658Z,101287.25
2023-01-06T19:16:49.410Z,101293.50
2023-01-06T19:19:38.112Z,101300.06
2023-01-06T19:22:14.418Z,101299.31
2023-01-06T19:24:45.437Z,101306.59
2023-01-06T19:27:47.791Z,101303.13
2023-01-06T19:30:34.935Z,101296.38
2023-01-06T19:33:13.741Z,101301.84
2023-01-06T19:35:40.310Z,101300.03
2023-01-06T19:38:25.485Z,101302.06
2023-01-06T19:40:52.738Z,101311.00
2023-01-06T19:43:26.789Z,101303.75
2023-01-06T19:45:53.718Z,101302.31
2023-01-06T19:48:36.283Z,101311.31
2023-01-06T19:51:17.653Z,101318.59
2023-01-06T19:53:48.085Z,101316.28
2023-01-06T19:56:23.222Z,101313.22
2023-01-06T19:58:57.355Z,101311.22
2023-01-06T20:01:24.226Z,101311.78
2023-01-06T20:03:54.144Z,101308.75
2023-01-06T20:06:21.703Z,101318.34
2023-01-06T20:08:53.624Z,101319.19
2023-01-06T20:11:24.527Z,101322.69
2023-01-06T20:13:51.036Z,101328.06
2023-01-06T20:16:17.691Z,101323.84
2023-01-06T20:18:44.197Z,101318.25
2023-01-06T20:21:10.602Z,101321.97
2023-01-06T20:23:37.034Z,101333.28
2023-01-06T20:26:03.485Z,101338.41
2023-01-06T20:28:29.909Z,101335.75
2023-01-06T20:30:56.392Z,101337.53
2023-01-06T20:33:22.812Z,101337.44
2023-01-06T20:35:49.891Z,101332.41
2023-01-06T20:38:16.383Z,101334.88
2023-01-06T20:40:42.830Z,101338.88
2023-01-06T20:43:09.376Z,101337.63
2023-01-06T20:45:36.152Z,101342.38
2023-01-06T20:48:03.344Z,101343.25
2023-01-06T20:50:29.953Z,101336.19
2023-01-06T20:52:56.537Z,101346.16
2023-01-06T20:55:23.265Z,101347.16
2023-01-06T20:57:49.971Z,101348.84
2023-01-06T21:00:16.949Z,101354.34
2023-01-06T21:02:43.440Z,101354.28
2023-01-06T21:05:10.330Z,101363.38
2023-01-06T21:07:36.852Z,101358.94
2023-01-06T21:10:04.594Z,101355.38
2023-01-06T21:12:31.110Z,101360.88
2023-01-06T21:14:57.513Z,101363.22
2023-01-06T21:17:24.110Z,101367.56
2023-01-06T21:19:50.764Z,101361.03
2023-01-06T21:22:17.259Z,101362.19
2023-01-06T21:24:43.634Z,101368.53
2023-01-06T21:27:10.155Z,101364.03
2023-01-06T21:29:36.561Z,101362.41
2023-01-06T21:32:03.268Z,101371.50
2023-01-06T21:34:29.662Z,101360.53
2023-01-06T21:36:57.564Z,101363.56
2023-01-06T21:39:24.158Z,101361.34
2023-01-06T21:42:08.904Z,101361.84
2023-01-06T21:44:35.476Z,101360.09
2023-01-06T21:47:03.717Z,101351.53
2023-01-06T21:49:31.163Z,101353.28
2023-01-06T21:52:00.521Z,101356.69
2023-01-06T21:54:26.950Z,101365.84
2023-01-06T21:56:54.050Z,101368.16
2023-01-06T21:59:20.884Z,101363.00
2023-01-06T22:01:47.901Z,101364.88
2023-01-06T22:04:14.580Z,101370.34
2023-01-06T22:06:43.745Z,101369.31
2023-01-06T22:09:13.882Z,101372.66
2023-01-06T22:11:41.542Z,101366.41
2023-01-06T22:14:09.921Z,101374.56
2023-01-06T22:16:38.493Z,101373.97
2023-01-06T22:19:06.112Z,101379.34
2023-01-06T22:21:34.117Z,101370.47
2023-01-06T22:24:00.969Z,101377.59
2023-01-06T22:26:27.444Z,101377.84
2023-01-06T22:28:53.833Z,101376.66
2023-01-06T22:31:20.252Z,101373.25
2023-01-06T22:33:46.707Z,101382.38
2023-01-06T22:36:13.144Z,101383.16
2023-01-06T22:38:39.627Z,101384.88
2023-01-06T22:41:07.037Z,101384.97
2023-01-06T22:43:33.843Z,101389.44
2023-01-06T22:46:00.441Z,101397.75
2023-01-06T22:48:27.312Z,101391.38
2023-01-06T22:50:58.462Z,101389.63
2023-01-06T22:53:25.946Z,101380.44
2023-01-06T22:56:00.275Z,101374.84
2023-01-06T22:58:27.499Z,101381.22
2023-01-06T23:00:54.092Z,101376.72
2023-01-06T23:03:24.469Z,101374.78
2023-01-06T23:06:17.627Z,101367.94
2023-01-06T23:08:59.217Z,101370.47
2023-01-06T23:11:27.936Z,101372.22
2023-01-06T23:13:58.329Z,101368.53
2023-01-06T23:16:30.021Z,101357.19
2023-01-06T23:18:56.747Z,101367.78
2023-01-06T23:21:25.475Z,101361.81
2023-01-06T23:23:52.784Z,101358.00
2023-01-06T23:26:27.348Z,101359.88
2023-01-06T23:28:55.270Z,101357.06
2023-01-06T23:31:25.255Z,101361.09
2023-01-06T23:33:55.872Z,101366.59
2023-01-06T23:36:23.787Z,101376.56
2023-01-06T23:38:51.037Z,101372.47
2023-01-06T23:41:19.751Z,101373.22
2023-01-06T23:43:48.161Z,101370.53
2023-01-06T23:46:18.803Z,101379.09
2023-01-06T23:48:46.024Z,101381.38
2023-01-06T23:51:13.256Z,101382.66
2023-01-06T23:53:40.559Z,101385.13
2023-01-06T23:56:11.531Z,101382.50
2023-01-06T23:58:39.925Z,101379.91
